KEBS/EBS METAR and TAF weather

Enter ICAO airport designator
Station Type Date Time Source
KEBS METAR 2018/04/23 11:15 UTC NOAA

KEBS 231115Z AUTO 06005KT 10SM CLR 05/01 A3020 RMK AO2


Station Type Date Time Source
KEBS Decoded METAR 2018/04/23 11:15 UTC NOAA

Webster City, IA, United States (KEBS) 42-26N 093-52W
Apr 23, 2018 - 07:15 AM EDT / 2018.04.23 1115 UTC
Wind: from the ENE (060 degrees) at 6 MPH (5 KT):0
Visibility: 10 mile(s):0
Sky conditions: clear
Temperature: 41 F (5 C)
Dew Point: 33 F (1 C)
Relative Humidity: 75%
Pressure (altimeter): 30.2 in. Hg (1022 hPa)
ob: KEBS 231115Z AUTO 06005KT 10SM CLR 05/01 A3020 RMK AO2
cycle: 11

Station Type Date Time Source
KEBS TAF UTC NOAA

Error!


Example: see airport list